createdAt,value
2023-08-07T00:02:01.594Z,4.18
2023-08-07T00:04:28.996Z,3.05
2023-08-07T00:06:55.650Z,2.60
2023-08-07T00:09:22.350Z,3.03
2023-08-07T00:11:49.336Z,3.25
2023-08-07T00:14:16.046Z,4.43
2023-08-07T00:16:42.902Z,3.38
2023-08-07T00:19:09.529Z,3.42
2023-08-07T00:21:36.985Z,3.35
2023-08-07T00:24:04.010Z,3.35
2023-08-07T00:26:33.222Z,6.07
2023-08-07T00:29:00.036Z,2.63
2023-08-07T00:31:26.980Z,4.80
2023-08-07T00:33:55.501Z,4.20
2023-08-07T00:36:23.430Z,3.38
2023-08-07T00:38:51.287Z,3.28
2023-08-07T00:41:19.473Z,3.10
2023-08-07T00:43:46.138Z,3.90
2023-08-07T00:46:13.115Z,3.47
2023-08-07T00:48:40.353Z,2.63
2023-08-07T00:51:09.069Z,3.25
2023-08-07T00:53:40.516Z,3.13
2023-08-07T00:56:08.444Z,3.25
2023-08-07T00:58:35.859Z,4.38
2023-08-07T01:01:03.767Z,3.78
2023-08-07T01:03:30.533Z,3.13
2023-08-07T01:05:57.482Z,3.72
2023-08-07T01:08:25.582Z,3.10
2023-08-07T01:11:04.382Z,3.40
2023-08-07T01:13:38.713Z,3.10
2023-08-07T01:16:12.050Z,3.90
2023-08-07T01:18:40.036Z,3.83
2023-08-07T01:21:06.703Z,3.85
2023-08-07T01:23:33.751Z,3.17
2023-08-07T01:26:00.437Z,3.17
2023-08-07T01:28:33.897Z,3.30
2023-08-07T01:31:05.170Z,4.07
2023-08-07T01:34:06.072Z,2.90
2023-08-07T01:39:02.630Z,3.53
2023-08-07T01:41:31.148Z,3.83
2023-08-07T01:43:58.691Z,2.83
2023-08-07T01:46:25.330Z,3.88
2023-08-07T01:48:53.893Z,3.17
2023-08-07T01:51:20.620Z,3.92
2023-08-07T01:53:48.790Z,3.70
2023-08-07T01:56:15.453Z,3.72
2023-08-07T01:58:42.139Z,4.57
2023-08-07T02:01:08.869Z,4.63
2023-08-07T02:03:35.682Z,4.00
2023-08-07T02:06:03.148Z,3.80
2023-08-07T02:08:29.816Z,5.65
2023-08-07T02:10:56.447Z,4.47
2023-08-07T02:13:23.231Z,5.47
2023-08-07T02:15:49.973Z,5.53
2023-08-07T02:18:16.640Z,5.57
2023-08-07T02:20:43.326Z,4.03
2023-08-07T02:23:09.970Z,4.07
2023-08-07T02:25:36.668Z,5.50
2023-08-07T02:28:03.234Z,5.03
2023-08-07T02:30:31.463Z,4.65
2023-08-07T02:32:58.184Z,4.50
2023-08-07T02:35:24.953Z,7.93
2023-08-07T02:37:51.694Z,5.28
2023-08-07T02:40:19.960Z,4.05
2023-08-07T02:42:46.598Z,4.45
2023-08-07T02:45:13.272Z,5.32
2023-08-07T02:47:39.953Z,4.30
2023-08-07T02:50:07.115Z,6.00
2023-08-07T02:52:33.862Z,3.90
2023-08-07T02:55:00.621Z,5.13
2023-08-07T02:57:27.435Z,4.30
2023-08-07T02:59:54.050Z,5.57
2023-08-07T03:02:20.900Z,5.30
2023-08-07T03:04:47.612Z,4.40
2023-08-07T03:07:14.272Z,5.65
2023-08-07T03:09:41.054Z,3.38
2023-08-07T03:12:08.099Z,4.38
2023-08-07T03:14:35.754Z,3.83
2023-08-07T03:17:02.484Z,2.20
2023-08-07T03:19:29.202Z,2.88
2023-08-07T03:21:55.912Z,1.50
2023-08-07T03:24:22.650Z,3.67
2023-08-07T03:26:50.326Z,1.95
2023-08-07T03:29:17.124Z,1.98
2023-08-07T03:31:44.595Z,2.85
2023-08-07T03:34:12.029Z,1.95
2023-08-07T03:36:38.728Z,4.10
2023-08-07T03:39:05.862Z,1.83
2023-08-07T03:41:32.710Z,3.47
2023-08-07T03:44:00.192Z,2.50
2023-08-07T03:46:26.915Z,3.80
2023-08-07T03:48:53.609Z,2.65
2023-08-07T03:51:21.145Z,3.22
2023-08-07T03:53:51.496Z,2.92
2023-08-07T03:56:18.187Z,2.85
2023-08-07T03:58:45.374Z,2.70
2023-08-07T04:01:13.622Z,3.15
2023-08-07T04:03:41.389Z,3.97
2023-08-07T04:06:08.188Z,3.67
2023-08-07T04:08:34.986Z,4.13
2023-08-07T04:11:03.539Z,4.80
2023-08-07T04:13:30.398Z,3.47
2023-08-07T04:15:57.214Z,5.43
2023-08-07T04:18:24.088Z,4.40
2023-08-07T04:20:57.011Z,3.30
2023-08-07T04:23:24.288Z,4.57
2023-08-07T04:25:52.151Z,3.97
2023-08-07T04:28:19.235Z,3.88
2023-08-07T04:30:46.607Z,4.15
2023-08-07T04:33:13.897Z,5.30
2023-08-07T04:35:41.053Z,5.22
2023-08-07T04:38:07.768Z,5.22
2023-08-07T04:40:34.669Z,6.97
2023-08-07T04:43:01.909Z,6.07
2023-08-07T04:45:28.753Z,5.38
2023-08-07T04:47:55.447Z,5.28
2023-08-07T04:50:22.093Z,5.00
2023-08-07T04:52:48.792Z,5.57
2023-08-07T04:55:15.523Z,6.43
2023-08-07T04:57:42.309Z,5.90
2023-08-07T05:00:09.606Z,8.55
2023-08-07T05:02:36.467Z,8.45
2023-08-07T05:05:03.295Z,7.32
2023-08-07T05:07:29.890Z,12.52
2023-08-07T05:09:56.568Z,7.68
2023-08-07T05:12:23.954Z,7.15
2023-08-07T05:14:50.689Z,7.63
2023-08-07T05:17:17.361Z,8.32
2023-08-07T05:19:43.968Z,5.97
2023-08-07T05:22:10.688Z,5.75
2023-08-07T05:24:40.502Z,8.15
2023-08-07T05:27:09.522Z,7.50
2023-08-07T05:29:44.295Z,10.18
2023-08-07T05:32:15.792Z,5.93
2023-08-07T05:34:42.923Z,6.60
2023-08-07T05:37:09.854Z,6.25
2023-08-07T05:39:37.160Z,4.15
2023-08-07T05:42:04.543Z,5.82
2023-08-07T05:44:31.256Z,6.07
2023-08-07T05:46:58.023Z,5.05
2023-08-07T05:49:26.304Z,5.93
2023-08-07T05:51:54.413Z,5.07
2023-08-07T05:54:22.848Z,5.57
2023-08-07T05:56:50.460Z,5.97
2023-08-07T05:59:17.201Z,6.63
2023-08-07T06:01:43.864Z,5.65
2023-08-07T06:04:10.747Z,5.28
2023-08-07T06:06:40.300Z,4.93
2023-08-07T06:09:08.217Z,5.45
2023-08-07T06:11:35.450Z,4.63
2023-08-07T06:14:02.635Z,4.35
2023-08-07T06:16:29.460Z,4.53
2023-08-07T06:18:56.643Z,5.93
2023-08-07T06:21:23.304Z,5.90
2023-08-07T06:23:50.064Z,8.20
2023-08-07T06:26:16.742Z,4.20
2023-08-07T06:28:43.935Z,4.75
2023-08-07T06:31:12.234Z,4.85
2023-08-07T06:33:39.104Z,4.28
2023-08-07T06:36:07.399Z,3.40
2023-08-07T06:38:34.050Z,5.68
2023-08-07T06:41:01.833Z,4.60
2023-08-07T06:43:28.817Z,3.55
2023-08-07T06:45:56.924Z,5.30
2023-08-07T06:48:24.386Z,6.20
2023-08-07T06:50:52.186Z,4.18
2023-08-07T06:53:19.040Z,3.83
2023-08-07T06:55:46.279Z,2.83
2023-08-07T06:58:12.968Z,4.00
2023-08-07T07:00:39.666Z,5.57
2023-08-07T07:03:07.159Z,5.72
2023-08-07T07:05:34.013Z,4.18
2023-08-07T07:08:00.995Z,2.80
2023-08-07T07:10:27.773Z,4.47
2023-08-07T07:12:54.584Z,6.15
2023-08-07T07:15:21.225Z,3.15
2023-08-07T07:17:49.308Z,2.30
2023-08-07T07:20:16.046Z,5.40
2023-08-07T07:22:42.794Z,3.33
2023-08-07T07:25:09.997Z,2.83
2023-08-07T07:27:36.881Z,3.00
2023-08-07T07:30:03.722Z,2.60
2023-08-07T07:32:30.490Z,2.80
2023-08-07T07:34:57.176Z,3.08
2023-08-07T07:37:23.869Z,3.30
2023-08-07T07:39:50.627Z,2.22
2023-08-07T07:42:17.330Z,2.33
2023-08-07T07:44:43.950Z,3.55
2023-08-07T07:47:13.599Z,2.13
2023-08-07T07:49:45.431Z,2.50
2023-08-07T07:52:12.182Z,2.60
2023-08-07T07:54:38.846Z,3.50
2023-08-07T07:57:05.982Z,2.15
2023-08-07T07:59:32.694Z,1.55
2023-08-07T08:01:59.727Z,2.10
2023-08-07T08:04:26.668Z,2.97
2023-08-07T08:06:53.517Z,1.98
2023-08-07T08:09:20.662Z,3.22
2023-08-07T08:11:47.346Z,1.90
2023-08-07T08:14:14.022Z,1.75
2023-08-07T08:16:40.674Z,2.35
2023-08-07T08:19:09.299Z,1.55
2023-08-07T08:21:36.039Z,1.17
2023-08-07T08:24:02.881Z,2.20
2023-08-07T08:26:29.653Z,1.92
2023-08-07T08:28:56.468Z,2.55
2023-08-07T08:31:25.102Z,1.25
2023-08-07T08:33:51.882Z,3.17
2023-08-07T08:36:18.576Z,2.40
2023-08-07T08:38:47.809Z,2.22
2023-08-07T08:41:14.618Z,2.05
2023-08-07T08:43:44.268Z,2.55
2023-08-07T08:46:13.123Z,2.97
2023-08-07T08:48:41.610Z,2.22
2023-08-07T08:51:10.095Z,1.42
2023-08-07T08:53:37.137Z,1.88
2023-08-07T08:56:05.168Z,2.13
2023-08-07T08:58:32.385Z,2.25
2023-08-07T09:00:59.648Z,1.30
2023-08-07T09:03:27.402Z,1.92
2023-08-07T09:05:58.865Z,1.63
2023-08-07T09:08:28.282Z,1.25
2023-08-07T09:10:55.198Z,1.02
2023-08-07T09:13:25.612Z,1.13
2023-08-07T09:15:53.691Z,1.00
2023-08-07T09:18:23.714Z,1.00
2023-08-07T09:20:50.664Z,1.48
2023-08-07T09:23:20.168Z,1.10
2023-08-07T09:25:47.019Z,0.73
2023-08-07T09:28:14.233Z,2.05
2023-08-07T09:30:45.281Z,2.70
2023-08-07T09:33:12.191Z,1.13
2023-08-07T09:35:40.256Z,0.80
2023-08-07T09:38:08.539Z,1.10
2023-08-07T09:40:35.159Z,0.95
2023-08-07T09:43:03.412Z,1.00
2023-08-07T09:45:31.355Z,0.80
2023-08-07T09:47:59.920Z,1.50
2023-08-07T09:50:28.138Z,0.45
2023-08-07T09:52:56.761Z,1.23
2023-08-07T09:55:23.879Z,1.95
2023-08-07T09:57:51.299Z,1.15
2023-08-07T10:00:21.132Z,1.85
2023-08-07T10:02:51.993Z,1.15
2023-08-07T10:05:19.185Z,1.48
2023-08-07T10:07:47.931Z,1.63
2023-08-07T10:10:17.355Z,0.93
2023-08-07T10:12:47.207Z,0.93
2023-08-07T10:15:15.121Z,0.82
2023-08-07T10:17:42.555Z,1.33
2023-08-07T10:20:10.142Z,3.40
2023-08-07T10:22:39.676Z,1.88
2023-08-07T10:25:07.628Z,1.40
2023-08-07T10:27:37.804Z,0.50
2023-08-07T10:30:14.620Z,0.80
2023-08-07T10:32:45.515Z,1.70
2023-08-07T10:37:53.310Z,0.77
2023-08-07T10:40:22.572Z,0.70
2023-08-07T10:42:56.108Z,1.15
2023-08-07T10:45:24.164Z,0.40
2023-08-07T10:48:03.908Z,0.38
2023-08-07T10:50:32.617Z,0.90
2023-08-07T10:53:05.529Z,2.42
2023-08-07T10:55:44.496Z,0.57
2023-08-07T10:58:24.296Z,2.78
2023-08-07T11:01:23.754Z,6.22
2023-08-07T11:04:01.305Z,1.95
2023-08-07T11:06:34.413Z,1.00
2023-08-07T11:09:02.162Z,0.77
2023-08-07T11:11:28.890Z,2.50
2023-08-07T11:13:55.541Z,0.70
2023-08-07T11:16:22.958Z,0.80
2023-08-07T11:18:53.156Z,0.60
2023-08-07T11:21:20.040Z,1.88
2023-08-07T11:23:47.882Z,1.13
2023-08-07T11:26:14.544Z,1.05
2023-08-07T11:28:41.252Z,0.82
2023-08-07T11:31:08.195Z,2.05
2023-08-07T11:33:36.933Z,1.70
2023-08-07T11:36:04.351Z,2.13
2023-08-07T11:38:32.575Z,2.17
2023-08-07T11:41:01.416Z,2.45
2023-08-07T11:43:32.002Z,1.70
2023-08-07T11:46:00.499Z,2.05
2023-08-07T11:48:31.780Z,1.80
2023-08-07T11:50:59.440Z,3.50
2023-08-07T11:53:28.589Z,1.08
2023-08-07T11:56:05.229Z,1.48
2023-08-07T11:58:41.828Z,2.22
2023-08-07T12:01:14.000Z,1.55
2023-08-07T12:03:44.405Z,2.28
2023-08-07T12:06:11.168Z,1.40
2023-08-07T12:08:39.634Z,2.25
2023-08-07T12:11:08.505Z,1.10
2023-08-07T12:13:38.875Z,1.60
2023-08-07T12:16:06.250Z,1.23
2023-08-07T12:18:33.601Z,1.38
2023-08-07T12:21:05.465Z,1.95
2023-08-07T12:23:34.616Z,1.88
2023-08-07T12:26:01.842Z,1.23
2023-08-07T12:28:28.506Z,0.85
2023-08-07T12:30:55.263Z,0.60
2023-08-07T12:33:21.927Z,0.95
2023-08-07T12:35:48.627Z,0.60
2023-08-07T12:38:15.913Z,1.30
2023-08-07T12:40:44.383Z,0.75
2023-08-07T12:43:11.519Z,0.45
2023-08-07T12:48:08.383Z,2.90
2023-08-07T12:50:35.825Z,0.65
2023-08-07T12:53:02.786Z,1.73
2023-08-07T12:55:30.648Z,1.40
2023-08-07T12:57:58.041Z,1.05
2023-08-07T13:00:26.503Z,0.40
2023-08-07T13:02:54.718Z,0.38
2023-08-07T13:05:22.932Z,0.22
2023-08-07T13:07:51.425Z,0.47
2023-08-07T13:10:18.635Z,0.47
2023-08-07T13:12:48.360Z,0.65
2023-08-07T13:15:16.571Z,1.40
2023-08-07T13:17:44.337Z,1.88
2023-08-07T13:20:14.182Z,1.35
2023-08-07T13:22:43.469Z,1.05
2023-08-07T13:25:12.031Z,0.60
2023-08-07T13:27:40.621Z,1.27
2023-08-07T13:30:09.635Z,1.38
2023-08-07T13:32:37.897Z,0.70
2023-08-07T13:35:06.029Z,0.65
2023-08-07T13:37:33.266Z,0.50
2023-08-07T13:40:00.140Z,0.90
2023-08-07T13:42:28.702Z,1.35
2023-08-07T13:44:59.283Z,1.30
2023-08-07T13:47:27.027Z,0.75
2023-08-07T13:49:59.304Z,0.73
2023-08-07T13:52:25.973Z,0.40
2023-08-07T13:54:52.791Z,0.50
2023-08-07T13:57:19.538Z,1.10
2023-08-07T13:59:47.412Z,1.10
2023-08-07T14:02:14.766Z,1.48
2023-08-07T14:04:41.468Z,0.80
2023-08-07T14:07:08.228Z,1.40
2023-08-07T14:09:34.823Z,1.17
2023-08-07T14:12:01.593Z,1.65
2023-08-07T14:14:30.048Z,1.80
2023-08-07T14:16:58.676Z,0.93
2023-08-07T14:19:25.663Z,0.95
2023-08-07T14:21:52.651Z,0.70
2023-08-07T14:24:19.384Z,1.80
2023-08-07T14:26:46.068Z,1.40
2023-08-07T14:29:14.174Z,1.17
2023-08-07T14:31:40.981Z,2.17
2023-08-07T14:34:08.713Z,1.00
2023-08-07T14:36:36.658Z,0.60
2023-08-07T14:39:03.536Z,2.33
2023-08-07T14:41:30.248Z,3.42
2023-08-07T14:43:57.628Z,1.20
2023-08-07T14:46:24.951Z,1.60
2023-08-07T14:48:51.693Z,3.05
2023-08-07T14:51:18.432Z,0.65
2023-08-07T14:53:45.204Z,1.48
2023-08-07T14:56:11.834Z,1.50
2023-08-07T14:58:38.534Z,1.27
2023-08-07T15:01:05.203Z,1.33
2023-08-07T15:03:32.166Z,0.57
2023-08-07T15:05:58.926Z,0.82
2023-08-07T15:08:25.800Z,1.98
2023-08-07T15:10:54.275Z,1.90
2023-08-07T15:13:21.352Z,1.33
2023-08-07T15:15:48.029Z,1.92
2023-08-07T15:18:14.774Z,0.70
2023-08-07T15:20:41.725Z,0.90
2023-08-07T15:23:08.955Z,0.77
2023-08-07T15:25:35.641Z,1.92
2023-08-07T15:28:04.099Z,1.88
2023-08-07T15:30:31.787Z,0.80
2023-08-07T15:32:58.640Z,1.75
2023-08-07T15:35:26.990Z,0.70
2023-08-07T15:37:53.823Z,1.83
2023-08-07T15:40:20.887Z,3.03
2023-08-07T15:42:50.887Z,2.67
2023-08-07T15:45:17.707Z,0.88
2023-08-07T15:47:44.521Z,2.00
2023-08-07T15:50:11.210Z,0.60
2023-08-07T15:52:38.105Z,1.27
2023-08-07T15:55:05.169Z,0.60
2023-08-07T15:57:31.825Z,1.17
2023-08-07T15:59:58.615Z,1.48
2023-08-07T16:02:25.539Z,0.80
2023-08-07T16:04:52.324Z,2.30
2023-08-07T16:07:19.133Z,1.13
2023-08-07T16:09:45.848Z,1.60
2023-08-07T16:12:13.933Z,1.38
2023-08-07T16:14:40.711Z,1.55
2023-08-07T16:17:08.651Z,3.60
2023-08-07T16:19:35.359Z,1.35
2023-08-07T16:22:02.797Z,2.60
2023-08-07T16:24:29.474Z,1.27
2023-08-07T16:26:56.629Z,3.95
2023-08-07T16:29:23.527Z,1.35
2023-08-07T16:31:51.888Z,2.85
2023-08-07T16:34:19.818Z,2.67
2023-08-07T16:36:46.513Z,1.83
2023-08-07T16:39:13.116Z,1.60
2023-08-07T16:41:41.714Z,1.88
2023-08-07T16:44:08.478Z,1.17
2023-08-07T16:46:35.068Z,4.97
2023-08-07T16:49:01.726Z,1.88
2023-08-07T16:51:28.436Z,1.05
2023-08-07T16:53:55.423Z,1.15
2023-08-07T16:56:22.064Z,1.02
2023-08-07T16:58:49.633Z,1.55
2023-08-07T17:01:16.938Z,3.22
2023-08-07T17:03:44.724Z,2.30
2023-08-07T17:06:11.501Z,2.90
2023-08-07T17:08:39.702Z,1.35
2023-08-07T17:11:06.322Z,2.00
2023-08-07T17:13:32.998Z,1.23
2023-08-07T17:15:59.694Z,1.58
2023-08-07T17:18:26.431Z,3.67
2023-08-07T17:20:53.020Z,1.88
2023-08-07T17:23:19.644Z,2.38
2023-08-07T17:25:46.979Z,1.83
2023-08-07T17:28:13.587Z,3.50
2023-08-07T17:30:40.282Z,2.20
2023-08-07T17:33:07.004Z,1.77
2023-08-07T17:35:35.424Z,4.43
2023-08-07T17:38:02.451Z,3.72
2023-08-07T17:40:29.178Z,3.58
2023-08-07T17:42:55.904Z,3.15
2023-08-07T17:45:22.913Z,4.70
2023-08-07T17:47:50.585Z,2.08
2023-08-07T17:50:17.371Z,4.03
2023-08-07T17:52:44.009Z,1.92
2023-08-07T17:55:12.879Z,3.38
2023-08-07T17:57:39.817Z,1.92
2023-08-07T18:00:08.720Z,2.72
2023-08-07T18:02:35.720Z,3.60
2023-08-07T18:05:04.420Z,2.38
2023-08-07T18:07:31.965Z,1.83
2023-08-07T18:09:58.779Z,0.93
2023-08-07T18:12:25.557Z,1.88
2023-08-07T18:14:53.013Z,1.90
2023-08-07T18:17:21.451Z,1.80
2023-08-07T18:19:48.092Z,2.10
2023-08-07T18:22:14.758Z,1.85
2023-08-07T18:24:41.420Z,1.75
2023-08-07T18:27:08.201Z,2.97
2023-08-07T18:29:35.310Z,3.10
2023-08-07T18:32:02.992Z,4.07
2023-08-07T18:34:29.686Z,2.72
2023-08-07T18:36:56.764Z,3.03
2023-08-07T18:39:23.777Z,1.90
2023-08-07T18:41:50.473Z,3.20
2023-08-07T18:44:17.917Z,4.13
2023-08-07T18:46:44.709Z,2.67
2023-08-07T18:49:11.976Z,3.85
2023-08-07T18:51:39.445Z,5.45
2023-08-07T18:54:06.778Z,4.20
2023-08-07T18:56:33.436Z,1.77
2023-08-07T18:59:04.306Z,3.90
2023-08-07T19:01:34.316Z,6.22
2023-08-07T19:04:02.597Z,2.55
2023-08-07T19:06:32.416Z,5.15
2023-08-07T19:08:59.685Z,3.47
2023-08-07T19:11:28.652Z,6.88
2023-08-07T19:13:56.940Z,2.38
2023-08-07T19:16:24.617Z,4.00
2023-08-07T19:18:51.297Z,3.63
2023-08-07T19:21:18.372Z,4.05
2023-08-07T19:23:45.073Z,3.70
2023-08-07T19:26:11.783Z,2.65
2023-08-07T19:28:40.973Z,3.67
2023-08-07T19:31:10.532Z,2.58
2023-08-07T19:33:37.263Z,3.17
2023-08-07T19:36:04.118Z,2.63
2023-08-07T19:38:30.774Z,4.00
2023-08-07T19:40:57.584Z,4.43
2023-08-07T19:43:24.421Z,2.65
2023-08-07T19:45:52.013Z,3.63
2023-08-07T19:48:18.904Z,5.38
2023-08-07T19:50:45.685Z,4.25
2023-08-07T19:53:12.404Z,6.75
2023-08-07T19:55:39.143Z,3.55
2023-08-07T19:58:05.953Z,2.95
2023-08-07T20:00:32.785Z,2.88
2023-08-07T20:03:00.204Z,3.03
2023-08-07T20:05:27.484Z,4.30
2023-08-07T20:07:54.810Z,2.25
2023-08-07T20:10:24.654Z,2.30
2023-08-07T20:12:52.392Z,4.38
2023-08-07T20:15:21.011Z,3.22
2023-08-07T20:17:49.896Z,3.45
2023-08-07T20:20:21.162Z,1.88
2023-08-07T20:25:15.182Z,5.15
2023-08-07T20:27:41.941Z,2.55
2023-08-07T20:30:08.957Z,2.72
2023-08-07T20:32:35.652Z,2.72
2023-08-07T20:35:02.315Z,4.00
2023-08-07T20:37:29.023Z,5.22
2023-08-07T20:39:56.602Z,3.75
2023-08-07T20:42:23.238Z,6.55
2023-08-07T20:44:50.092Z,3.80
2023-08-07T20:47:16.836Z,5.35
2023-08-07T20:49:43.496Z,4.10
2023-08-07T20:52:10.201Z,4.10
2023-08-07T20:54:37.019Z,5.00
2023-08-07T20:57:04.066Z,4.43
2023-08-07T20:59:31.014Z,5.55
2023-08-07T21:01:57.913Z,3.25
2023-08-07T21:04:26.908Z,3.97
2023-08-07T21:06:54.124Z,3.45
2023-08-07T21:09:21.557Z,4.00
2023-08-07T21:11:48.224Z,4.28
2023-08-07T21:14:15.220Z,4.53
2023-08-07T21:16:45.157Z,5.25
2023-08-07T21:19:12.951Z,2.42
2023-08-07T21:21:40.056Z,2.67
2023-08-07T21:24:13.121Z,2.58
2023-08-07T21:26:41.523Z,3.85
2023-08-07T21:29:08.492Z,3.47
2023-08-07T21:31:35.701Z,2.13
2023-08-07T21:34:03.169Z,5.90
2023-08-07T21:36:29.790Z,2.72
2023-08-07T21:38:58.688Z,6.25
2023-08-07T21:41:25.571Z,2.67
2023-08-07T21:43:52.292Z,3.42
2023-08-07T21:46:20.535Z,5.97
2023-08-07T21:48:47.992Z,2.47
2023-08-07T21:51:14.695Z,6.13
2023-08-07T21:53:41.389Z,3.05
2023-08-07T21:56:07.961Z,2.25
2023-08-07T21:58:34.597Z,3.08
2023-08-07T22:01:02.102Z,3.28
2023-08-07T22:03:28.730Z,4.85
2023-08-07T22:05:55.380Z,4.95
2023-08-07T22:08:22.043Z,2.05
2023-08-07T22:10:48.699Z,2.75
2023-08-07T22:13:15.253Z,2.70
2023-08-07T22:15:42.012Z,2.80
2023-08-07T22:18:08.629Z,3.72
2023-08-07T22:20:35.304Z,2.90
2023-08-07T22:23:01.947Z,3.17
2023-08-07T22:25:28.541Z,2.85
2023-08-07T22:27:55.236Z,4.75
2023-08-07T22:30:22.501Z,2.83
2023-08-07T22:32:51.342Z,5.05
2023-08-07T22:35:18.882Z,4.45
2023-08-07T22:37:45.541Z,7.15
2023-08-07T22:40:12.658Z,4.72
2023-08-07T22:42:39.406Z,4.10
2023-08-07T22:45:06.305Z,3.15
2023-08-07T22:47:32.980Z,4.97
2023-08-07T22:49:59.606Z,7.63
2023-08-07T22:52:26.249Z,4.80
2023-08-07T22:54:52.907Z,5.90
2023-08-07T22:57:19.505Z,3.30
2023-08-07T22:59:46.180Z,3.42
2023-08-07T23:02:12.771Z,3.15
2023-08-07T23:04:39.401Z,3.30
2023-08-07T23:07:06.063Z,3.40
2023-08-07T23:09:32.634Z,4.93
2023-08-07T23:11:59.653Z,4.95
2023-08-07T23:14:26.444Z,2.47
2023-08-07T23:16:53.183Z,7.43
2023-08-07T23:19:19.815Z,4.68
2023-08-07T23:21:46.424Z,3.15
2023-08-07T23:24:13.001Z,3.75
2023-08-07T23:26:40.789Z,4.47
2023-08-07T23:29:07.402Z,3.80
2023-08-07T23:31:34.100Z,3.17
2023-08-07T23:34:00.866Z,5.65
2023-08-07T23:36:27.496Z,5.80
2023-08-07T23:38:54.520Z,2.20
2023-08-07T23:41:21.256Z,4.88
2023-08-07T23:43:48.174Z,3.95
2023-08-07T23:46:14.870Z,2.85
2023-08-07T23:48:41.657Z,2.30
2023-08-07T23:51:08.297Z,4.35
2023-08-07T23:53:34.949Z,3.63
2023-08-07T23:56:01.676Z,2.83
2023-08-07T23:58:28.391Z,5.85
